sensor_id;sensor_type;location;lat;lon;timestamp;temperature;humidity
72277;SHT30;61204;49.980;8.358;2024-02-21T00:01:18;7.80;87.14
72277;SHT30;61204;49.980;8.358;2024-02-21T00:03:45;7.82;87.38
72277;SHT30;61204;49.980;8.358;2024-02-21T00:06:10;7.76;87.71
72277;SHT30;61204;49.980;8.358;2024-02-21T00:08:38;7.79;87.23
72277;SHT30;61204;49.980;8.358;2024-02-21T00:11:04;7.80;87.25
72277;SHT30;61204;49.980;8.358;2024-02-21T00:13:32;7.90;87.11
72277;SHT30;61204;49.980;8.358;2024-02-21T00:16:01;7.91;86.72
72277;SHT30;61204;49.980;8.358;2024-02-21T00:18:27;7.96;86.63
72277;SHT30;61204;49.980;8.358;2024-02-21T00:20:52;7.97;86.47
72277;SHT30;61204;49.980;8.358;2024-02-21T00:23:18;8.04;85.92
72277;SHT30;61204;49.980;8.358;2024-02-21T00:25:46;7.97;86.37
72277;SHT30;61204;49.980;8.358;2024-02-21T00:28:14;7.93;86.69
72277;SHT30;61204;49.980;8.358;2024-02-21T00:30:40;7.85;86.79
72277;SHT30;61204;49.980;8.358;2024-02-21T00:33:08;7.85;86.97
72277;SHT30;61204;49.980;8.358;2024-02-21T00:35:33;7.82;87.08
72277;SHT30;61204;49.980;8.358;2024-02-21T00:37:59;7.85;86.86
72277;SHT30;61204;49.980;8.358;2024-02-21T00:40:24;7.85;86.88
72277;SHT30;61204;49.980;8.358;2024-02-21T00:42:50;7.87;86.71
72277;SHT30;61204;49.980;8.358;2024-02-21T00:45:16;7.85;86.79
72277;SHT30;61204;49.980;8.358;2024-02-21T00:47:41;7.87;86.82
72277;SHT30;61204;49.980;8.358;2024-02-21T00:50:07;7.93;86.38
72277;SHT30;61204;49.980;8.358;2024-02-21T00:52:34;7.89;86.61
72277;SHT30;61204;49.980;8.358;2024-02-21T00:55:00;7.87;86.36
72277;SHT30;61204;49.980;8.358;2024-02-21T00:57:26;7.86;86.65
72277;SHT30;61204;49.980;8.358;2024-02-21T00:59:51;7.79;86.88
72277;SHT30;61204;49.980;8.358;2024-02-21T01:02:17;7.83;86.57
72277;SHT30;61204;49.980;8.358;2024-02-21T01:04:45;7.83;86.63
72277;SHT30;61204;49.980;8.358;2024-02-21T01:07:11;7.96;86.09
72277;SHT30;61204;49.980;8.358;2024-02-21T01:09:36;8.00;85.60
72277;SHT30;61204;49.980;8.358;2024-02-21T01:12:02;8.04;85.24
72277;SHT30;61204;49.980;8.358;2024-02-21T01:14:27;8.00;85.74
72277;SHT30;61204;49.980;8.358;2024-02-21T01:16:55;7.96;85.82
72277;SHT30;61204;49.980;8.358;2024-02-21T01:19:20;7.96;85.77
72277;SHT30;61204;49.980;8.358;2024-02-21T01:21:46;7.97;85.89
72277;SHT30;61204;49.980;8.358;2024-02-21T01:24:12;7.94;86.03
72277;SHT30;61204;49.980;8.358;2024-02-21T01:26:40;7.89;86.11
72277;SHT30;61204;49.980;8.358;2024-02-21T01:29:06;7.86;86.32
72277;SHT30;61204;49.980;8.358;2024-02-21T01:31:31;7.94;86.14
72277;SHT30;61204;49.980;8.358;2024-02-21T01:33:57;7.89;86.32
72277;SHT30;61204;49.980;8.358;2024-02-21T01:36:23;7.89;86.39
72277;SHT30;61204;49.980;8.358;2024-02-21T01:38:49;7.87;86.42
72277;SHT30;61204;49.980;8.358;2024-02-21T01:41:14;7.80;86.73
72277;SHT30;61204;49.980;8.358;2024-02-21T01:43:41;7.76;86.99
72277;SHT30;61204;49.980;8.358;2024-02-21T01:46:10;7.70;86.98
72277;SHT30;61204;49.980;8.358;2024-02-21T01:48:35;7.70;86.98
72277;SHT30;61204;49.980;8.358;2024-02-21T01:51:04;7.76;86.91
72277;SHT30;61204;49.980;8.358;2024-02-21T01:53:35;7.80;86.37
72277;SHT30;61204;49.980;8.358;2024-02-21T01:56:05;7.72;86.54
72277;SHT30;61204;49.980;8.358;2024-02-21T01:58:34;7.68;86.46
72277;SHT30;61204;49.980;8.358;2024-02-21T02:01:03;7.65;86.57
72277;SHT30;61204;49.980;8.358;2024-02-21T02:03:29;7.63;86.51
72277;SHT30;61204;49.980;8.358;2024-02-21T02:05:55;7.54;86.86
72277;SHT30;61204;49.980;8.358;2024-02-21T02:08:21;7.45;87.13
72277;SHT30;61204;49.980;8.358;2024-02-21T02:10:48;7.44;87.11
72277;SHT30;61204;49.980;8.358;2024-02-21T02:13:14;7.36;87.36
72277;SHT30;61204;49.980;8.358;2024-02-21T02:18:13;7.34;87.36
72277;SHT30;61204;49.980;8.358;2024-02-21T02:20:42;7.30;87.08
72277;SHT30;61204;49.980;8.358;2024-02-21T02:23:32;7.28;87.09
72277;SHT30;61204;49.980;8.358;2024-02-21T02:25:59;7.38;86.55
72277;SHT30;61204;49.980;8.358;2024-02-21T02:28:26;7.35;86.60
72277;SHT30;61204;49.980;8.358;2024-02-21T02:30:52;7.35;86.83
72277;SHT30;61204;49.980;8.358;2024-02-21T02:33:18;7.41;86.76
72277;SHT30;61204;49.980;8.358;2024-02-21T02:35:44;7.32;86.90
72277;SHT30;61204;49.980;8.358;2024-02-21T02:38:11;7.24;87.46
72277;SHT30;61204;49.980;8.358;2024-02-21T02:40:41;7.38;87.04
72277;SHT30;61204;49.980;8.358;2024-02-21T02:43:06;7.38;86.84
72277;SHT30;61204;49.980;8.358;2024-02-21T02:45:33;7.35;86.92
72277;SHT30;61204;49.980;8.358;2024-02-21T02:47:59;7.36;86.90
72277;SHT30;61204;49.980;8.358;2024-02-21T02:50:26;7.35;87.23
72277;SHT30;61204;49.980;8.358;2024-02-21T02:52:54;7.34;87.55
72277;SHT30;61204;49.980;8.358;2024-02-21T02:55:20;7.27;87.81
72277;SHT30;61204;49.980;8.358;2024-02-21T02:57:48;7.25;87.87
72277;SHT30;61204;49.980;8.358;2024-02-21T03:00:15;7.28;87.83
72277;SHT30;61204;49.980;8.358;2024-02-21T03:02:43;7.30;87.70
72277;SHT30;61204;49.980;8.358;2024-02-21T03:05:14;7.34;88.15
72277;SHT30;61204;49.980;8.358;2024-02-21T03:07:44;7.23;88.62
72277;SHT30;61204;49.980;8.358;2024-02-21T03:10:11;7.17;88.95
72277;SHT30;61204;49.980;8.358;2024-02-21T03:12:37;7.13;89.14
72277;SHT30;61204;49.980;8.358;2024-02-21T03:15:04;7.11;89.61
72277;SHT30;61204;49.980;8.358;2024-02-21T03:17:32;7.10;89.86
72277;SHT30;61204;49.980;8.358;2024-02-21T03:19:59;7.11;89.98
72277;SHT30;61204;49.980;8.358;2024-02-21T03:22:25;7.18;89.96
72277;SHT30;61204;49.980;8.358;2024-02-21T03:24:51;7.17;90.08
72277;SHT30;61204;49.980;8.358;2024-02-21T03:27:17;7.14;90.32
72277;SHT30;61204;49.980;8.358;2024-02-21T03:29:42;7.28;90.06
72277;SHT30;61204;49.980;8.358;2024-02-21T03:32:08;7.24;90.11
72277;SHT30;61204;49.980;8.358;2024-02-21T03:34:35;7.27;89.87
72277;SHT30;61204;49.980;8.358;2024-02-21T03:37:01;7.25;90.11
72277;SHT30;61204;49.980;8.358;2024-02-21T03:39:26;7.23;90.26
72277;SHT30;61204;49.980;8.358;2024-02-21T03:41:52;7.28;90.10
72277;SHT30;61204;49.980;8.358;2024-02-21T03:44:18;7.27;89.90
72277;SHT30;61204;49.980;8.358;2024-02-21T03:46:43;7.25;90.05
72277;SHT30;61204;49.980;8.358;2024-02-21T03:49:09;7.32;90.05
72277;SHT30;61204;49.980;8.358;2024-02-21T03:51:34;7.27;89.90
72277;SHT30;61204;49.980;8.358;2024-02-21T03:54:00;7.21;90.13
72277;SHT30;61204;49.980;8.358;2024-02-21T03:56:26;7.28;89.53
72277;SHT30;61204;49.980;8.358;2024-02-21T03:58:51;7.34;89.18
72277;SHT30;61204;49.980;8.358;2024-02-21T04:01:17;7.35;89.04
72277;SHT30;61204;49.980;8.358;2024-02-21T04:03:45;7.40;88.67
72277;SHT30;61204;49.980;8.358;2024-02-21T04:06:11;7.34;88.82
72277;SHT30;61204;49.980;8.358;2024-02-21T04:08:37;7.42;88.40
72277;SHT30;61204;49.980;8.358;2024-02-21T04:11:04;7.48;88.25
72277;SHT30;61204;49.980;8.358;2024-02-21T04:13:31;7.49;88.34
72277;SHT30;61204;49.980;8.358;2024-02-21T04:15:57;7.58;88.04
72277;SHT30;61204;49.980;8.358;2024-02-21T04:18:22;7.52;88.24
72277;SHT30;61204;49.980;8.358;2024-02-21T04:20:48;7.55;88.19
72277;SHT30;61204;49.980;8.358;2024-02-21T04:23:14;7.54;88.43
72277;SHT30;61204;49.980;8.358;2024-02-21T04:25:39;7.47;88.85
72277;SHT30;61204;49.980;8.358;2024-02-21T04:28:05;7.35;89.08
72277;SHT30;61204;49.980;8.358;2024-02-21T04:30:30;7.38;89.07
72277;SHT30;61204;49.980;8.358;2024-02-21T04:32:56;7.38;88.89
72277;SHT30;61204;49.980;8.358;2024-02-21T04:35:21;7.45;88.42
72277;SHT30;61204;49.980;8.358;2024-02-21T04:37:47;7.45;87.90
72277;SHT30;61204;49.980;8.358;2024-02-21T04:40:13;7.54;86.85
72277;SHT30;61204;49.980;8.358;2024-02-21T04:42:39;7.63;86.07
72277;SHT30;61204;49.980;8.358;2024-02-21T04:45:06;7.63;85.66
72277;SHT30;61204;49.980;8.358;2024-02-21T04:47:34;7.68;85.18
72277;SHT30;61204;49.980;8.358;2024-02-21T04:50:02;7.66;85.00
72277;SHT30;61204;49.980;8.358;2024-02-21T04:52:28;7.65;85.20
72277;SHT30;61204;49.980;8.358;2024-02-21T04:54:55;7.66;85.05
72277;SHT30;61204;49.980;8.358;2024-02-21T04:57:21;7.61;84.92
72277;SHT30;61204;49.980;8.358;2024-02-21T04:59:46;7.63;84.90
72277;SHT30;61204;49.980;8.358;2024-02-21T05:02:13;7.55;84.93
72277;SHT30;61204;49.980;8.358;2024-02-21T05:04:39;7.63;84.70
72277;SHT30;61204;49.980;8.358;2024-02-21T05:07:07;7.56;84.79
72277;SHT30;61204;49.980;8.358;2024-02-21T05:09:33;7.56;84.96
72277;SHT30;61204;49.980;8.358;2024-02-21T05:11:58;7.56;84.84
72277;SHT30;61204;49.980;8.358;2024-02-21T05:14:25;7.55;84.90
72277;SHT30;61204;49.980;8.358;2024-02-21T05:16:52;7.62;84.38
72277;SHT30;61204;49.980;8.358;2024-02-21T05:19:18;7.65;83.95
72277;SHT30;61204;49.980;8.358;2024-02-21T05:21:44;7.69;84.01
72277;SHT30;61204;49.980;8.358;2024-02-21T05:24:15;7.63;84.35
72277;SHT30;61204;49.980;8.358;2024-02-21T05:26:40;7.62;84.16
72277;SHT30;61204;49.980;8.358;2024-02-21T05:29:06;7.73;84.12
72277;SHT30;61204;49.980;8.358;2024-02-21T05:34:16;7.66;84.08
72277;SHT30;61204;49.980;8.358;2024-02-21T05:36:42;7.73;83.94
72277;SHT30;61204;49.980;8.358;2024-02-21T05:39:07;7.68;83.89
72277;SHT30;61204;49.980;8.358;2024-02-21T05:41:33;7.70;83.76
72277;SHT30;61204;49.980;8.358;2024-02-21T05:43:59;7.75;83.11
72277;SHT30;61204;49.980;8.358;2024-02-21T05:46:24;7.73;83.49
72277;SHT30;61204;49.980;8.358;2024-02-21T05:48:50;7.61;83.61
72277;SHT30;61204;49.980;8.358;2024-02-21T05:51:15;7.44;84.15
72277;SHT30;61204;49.980;8.358;2024-02-21T05:53:41;7.36;84.94
72277;SHT30;61204;49.980;8.358;2024-02-21T05:56:11;7.30;84.74
72277;SHT30;61204;49.980;8.358;2024-02-21T05:58:40;7.27;84.83
72277;SHT30;61204;49.980;8.358;2024-02-21T06:01:06;7.31;84.62
72277;SHT30;61204;49.980;8.358;2024-02-21T06:03:34;7.49;83.28
72277;SHT30;61204;49.980;8.358;2024-02-21T06:06:02;7.54;83.05
72277;SHT30;61204;49.980;8.358;2024-02-21T06:08:28;7.41;83.33
72277;SHT30;61204;49.980;8.358;2024-02-21T06:10:54;7.36;83.44
72277;SHT30;61204;49.980;8.358;2024-02-21T06:13:28;7.23;84.26
72277;SHT30;61204;49.980;8.358;2024-02-21T06:15:54;7.10;85.30
72277;SHT30;61204;49.980;8.358;2024-02-21T06:18:20;6.96;86.36
72277;SHT30;61204;49.980;8.358;2024-02-21T06:20:46;6.89;87.26
72277;SHT30;61204;49.980;8.358;2024-02-21T06:23:14;6.86;87.13
72277;SHT30;61204;49.980;8.358;2024-02-21T06:25:42;6.76;87.32
72277;SHT30;61204;49.980;8.358;2024-02-21T06:28:07;6.80;87.26
72277;SHT30;61204;49.980;8.358;2024-02-21T06:30:33;6.90;86.78
72277;SHT30;61204;49.980;8.358;2024-02-21T06:33:01;6.93;86.44
72277;SHT30;61204;49.980;8.358;2024-02-21T06:35:29;6.92;86.79
72277;SHT30;61204;49.980;8.358;2024-02-21T06:37:55;6.83;87.02
72277;SHT30;61204;49.980;8.358;2024-02-21T06:40:22;6.86;86.85
72277;SHT30;61204;49.980;8.358;2024-02-21T06:42:49;6.92;86.94
72277;SHT30;61204;49.980;8.358;2024-02-21T06:45:16;6.92;87.02
72277;SHT30;61204;49.980;8.358;2024-02-21T06:47:42;6.99;86.82
72277;SHT30;61204;49.980;8.358;2024-02-21T06:50:09;7.05;86.55
72277;SHT30;61204;49.980;8.358;2024-02-21T06:52:36;7.11;86.41
72277;SHT30;61204;49.980;8.358;2024-02-21T06:55:04;7.13;86.22
72277;SHT30;61204;49.980;8.358;2024-02-21T06:57:30;7.15;86.10
72277;SHT30;61204;49.980;8.358;2024-02-21T06:59:56;7.14;86.00
72277;SHT30;61204;49.980;8.358;2024-02-21T07:02:23;7.15;85.89
72277;SHT30;61204;49.980;8.358;2024-02-21T07:04:49;7.17;85.76
72277;SHT30;61204;49.980;8.358;2024-02-21T07:07:17;7.30;85.60
72277;SHT30;61204;49.980;8.358;2024-02-21T07:09:43;7.41;85.19
72277;SHT30;61204;49.980;8.358;2024-02-21T07:12:08;7.51;84.95
72277;SHT30;61204;49.980;8.358;2024-02-21T07:14:36;7.59;84.10
72277;SHT30;61204;49.980;8.358;2024-02-21T07:17:02;7.76;83.83
72277;SHT30;61204;49.980;8.358;2024-02-21T07:19:27;7.82;82.94
72277;SHT30;61204;49.980;8.358;2024-02-21T07:21:53;7.86;82.90
72277;SHT30;61204;49.980;8.358;2024-02-21T07:24:19;7.82;82.61
72277;SHT30;61204;49.980;8.358;2024-02-21T07:26:44;7.79;82.81
72277;SHT30;61204;49.980;8.358;2024-02-21T07:29:10;7.76;83.25
72277;SHT30;61204;49.980;8.358;2024-02-21T07:31:43;7.69;82.95
72277;SHT30;61204;49.980;8.358;2024-02-21T07:34:10;7.83;82.87
72277;SHT30;61204;49.980;8.358;2024-02-21T07:36:39;7.75;82.96
72277;SHT30;61204;49.980;8.358;2024-02-21T07:39:04;7.76;82.64
72277;SHT30;61204;49.980;8.358;2024-02-21T07:41:30;8.10;81.98
72277;SHT30;61204;49.980;8.358;2024-02-21T07:43:57;8.05;81.67
72277;SHT30;61204;49.980;8.358;2024-02-21T07:46:22;7.77;82.80
72277;SHT30;61204;49.980;8.358;2024-02-21T07:48:48;7.76;82.76
72277;SHT30;61204;49.980;8.358;2024-02-21T07:51:16;7.83;82.56
72277;SHT30;61204;49.980;8.358;2024-02-21T07:53:46;7.76;82.79
72277;SHT30;61204;49.980;8.358;2024-02-21T07:56:13;7.72;82.75
72277;SHT30;61204;49.980;8.358;2024-02-21T07:58:40;7.83;82.71
72277;SHT30;61204;49.980;8.358;2024-02-21T08:01:08;7.86;82.67
72277;SHT30;61204;49.980;8.358;2024-02-21T08:03:34;8.01;82.17
72277;SHT30;61204;49.980;8.358;2024-02-21T08:06:00;8.17;81.48
72277;SHT30;61204;49.980;8.358;2024-02-21T08:08:26;8.03;81.43
72277;SHT30;61204;49.980;8.358;2024-02-21T08:10:53;8.10;81.55
72277;SHT30;61204;49.980;8.358;2024-02-21T08:13:19;8.30;80.69
72277;SHT30;61204;49.980;8.358;2024-02-21T08:15:45;8.21;80.30
72277;SHT30;61204;49.980;8.358;2024-02-21T08:18:12;8.35;80.03
72277;SHT30;61204;49.980;8.358;2024-02-21T08:20:38;8.48;80.26
72277;SHT30;61204;49.980;8.358;2024-02-21T08:23:03;8.60;79.77
72277;SHT30;61204;49.980;8.358;2024-02-21T08:25:29;8.69;79.34
72277;SHT30;61204;49.980;8.358;2024-02-21T08:27:59;8.58;79.11
72277;SHT30;61204;49.980;8.358;2024-02-21T08:30:25;8.69;79.34
72277;SHT30;61204;49.980;8.358;2024-02-21T08:32:51;8.59;79.91
72277;SHT30;61204;49.980;8.358;2024-02-21T08:35:16;8.79;79.06
72277;SHT30;61204;49.980;8.358;2024-02-21T08:37:47;8.87;78.43
72277;SHT30;61204;49.980;8.358;2024-02-21T08:40:14;8.91;78.36
72277;SHT30;61204;49.980;8.358;2024-02-21T08:42:45;9.11;77.78
72277;SHT30;61204;49.980;8.358;2024-02-21T08:45:10;9.24;76.84
72277;SHT30;61204;49.980;8.358;2024-02-21T08:47:39;9.15;76.76
72277;SHT30;61204;49.980;8.358;2024-02-21T08:50:06;9.30;76.22
72277;SHT30;61204;49.980;8.358;2024-02-21T08:52:35;9.35;76.25
72277;SHT30;61204;49.980;8.358;2024-02-21T08:55:01;9.58;76.27
72277;SHT30;61204;49.980;8.358;2024-02-21T08:57:27;9.58;75.15
72277;SHT30;61204;49.980;8.358;2024-02-21T08:59:53;9.86;75.39
72277;SHT30;61204;49.980;8.358;2024-02-21T09:02:19;10.07;74.60
72277;SHT30;61204;49.980;8.358;2024-02-21T09:04:44;10.10;74.07
72277;SHT30;61204;49.980;8.358;2024-02-21T09:07:11;10.10;75.02
72277;SHT30;61204;49.980;8.358;2024-02-21T09:09:37;10.75;73.15
72277;SHT30;61204;49.980;8.358;2024-02-21T09:12:06;11.08;72.11
72277;SHT30;61204;49.980;8.358;2024-02-21T09:14:36;10.56;72.68
72277;SHT30;61204;49.980;8.358;2024-02-21T09:17:06;10.76;71.51
72277;SHT30;61204;49.980;8.358;2024-02-21T09:19:33;10.75;71.40
72277;SHT30;61204;49.980;8.358;2024-02-21T09:22:01;10.42;72.14
72277;SHT30;61204;49.980;8.358;2024-02-21T09:24:30;9.98;73.03
72277;SHT30;61204;49.980;8.358;2024-02-21T09:26:56;9.58;74.61
72277;SHT30;61204;49.980;8.358;2024-02-21T09:29:24;9.62;73.57
72277;SHT30;61204;49.980;8.358;2024-02-21T09:31:50;9.41;74.27
72277;SHT30;61204;49.980;8.358;2024-02-21T09:34:15;9.66;73.70
72277;SHT30;61204;49.980;8.358;2024-02-21T09:36:41;9.72;73.71
72277;SHT30;61204;49.980;8.358;2024-02-21T09:39:07;9.79;73.20
72277;SHT30;61204;49.980;8.358;2024-02-21T09:41:38;9.66;73.86
72277;SHT30;61204;49.980;8.358;2024-02-21T09:44:10;10.10;72.80
72277;SHT30;61204;49.980;8.358;2024-02-21T09:49:34;10.45;72.06
72277;SHT30;61204;49.980;8.358;2024-02-21T09:52:05;10.84;72.10
72277;SHT30;61204;49.980;8.358;2024-02-21T09:54:33;11.18;70.82
72277;SHT30;61204;49.980;8.358;2024-02-21T09:57:01;11.58;68.85
72277;SHT30;61204;49.980;8.358;2024-02-21T09:59:31;10.10;71.91
72277;SHT30;61204;49.980;8.358;2024-02-21T10:01:58;10.86;71.92
72277;SHT30;61204;49.980;8.358;2024-02-21T10:04:27;10.89;71.13
72277;SHT30;61204;49.980;8.358;2024-02-21T10:06:56;10.56;71.24
72277;SHT30;61204;49.980;8.358;2024-02-21T10:09:22;11.10;70.23
72277;SHT30;61204;49.980;8.358;2024-02-21T10:12:11;10.94;70.48
72277;SHT30;61204;49.980;8.358;2024-02-21T10:14:38;11.34;70.39
72277;SHT30;61204;49.980;8.358;2024-02-21T10:17:04;11.17;69.70
72277;SHT30;61204;49.980;8.358;2024-02-21T10:19:34;11.32;69.86
72277;SHT30;61204;49.980;8.358;2024-02-21T10:22:10;11.61;69.19
72277;SHT30;61204;49.980;8.358;2024-02-21T10:24:37;11.41;69.07
72277;SHT30;61204;49.980;8.358;2024-02-21T10:27:09;10.79;70.84
72277;SHT30;61204;49.980;8.358;2024-02-21T10:29:39;11.24;70.05
72277;SHT30;61204;49.980;8.358;2024-02-21T10:32:10;10.84;70.72
72277;SHT30;61204;49.980;8.358;2024-02-21T10:34:39;10.63;71.44
72277;SHT30;61204;49.980;8.358;2024-02-21T10:37:10;10.81;71.17
72277;SHT30;61204;49.980;8.358;2024-02-21T10:39:40;10.99;70.66
72277;SHT30;61204;49.980;8.358;2024-02-21T10:42:17;11.35;69.90
72277;SHT30;61204;49.980;8.358;2024-02-21T10:44:51;11.86;68.47
72277;SHT30;61204;49.980;8.358;2024-02-21T10:47:23;11.77;68.81
72277;SHT30;61204;49.980;8.358;2024-02-21T10:50:02;11.17;68.72
72277;SHT30;61204;49.980;8.358;2024-02-21T10:52:43;11.73;68.39
72277;SHT30;61204;49.980;8.358;2024-02-21T10:55:38;11.30;69.41
72277;SHT30;61204;49.980;8.358;2024-02-21T10:58:08;11.61;68.17
72277;SHT30;61204;49.980;8.358;2024-02-21T11:00:37;12.00;66.86
72277;SHT30;61204;49.980;8.358;2024-02-21T11:03:05;11.87;66.77
72277;SHT30;61204;49.980;8.358;2024-02-21T11:05:32;12.31;66.93
72277;SHT30;61204;49.980;8.358;2024-02-21T11:07:59;12.13;66.45
72277;SHT30;61204;49.980;8.358;2024-02-21T11:10:26;12.18;66.19
72277;SHT30;61204;49.980;8.358;2024-02-21T11:13:14;12.14;66.14
72277;SHT30;61204;49.980;8.358;2024-02-21T11:15:39;11.94;65.43
72277;SHT30;61204;49.980;8.358;2024-02-21T11:18:05;11.82;66.51
72277;SHT30;61204;49.980;8.358;2024-02-21T11:20:38;12.00;65.50
72277;SHT30;61204;49.980;8.358;2024-02-21T11:23:04;11.86;65.76
72277;SHT30;61204;49.980;8.358;2024-02-21T11:25:29;11.20;67.26
72277;SHT30;61204;49.980;8.358;2024-02-21T11:28:04;10.77;68.93
72277;SHT30;61204;49.980;8.358;2024-02-21T11:30:31;10.66;69.52
72277;SHT30;61204;49.980;8.358;2024-02-21T11:33:07;11.13;68.03
72277;SHT30;61204;49.980;8.358;2024-02-21T11:35:34;11.08;68.73
72277;SHT30;61204;49.980;8.358;2024-02-21T11:38:10;11.07;68.38
72277;SHT30;61204;49.980;8.358;2024-02-21T11:40:43;10.94;68.63
72277;SHT30;61204;49.980;8.358;2024-02-21T11:43:10;11.13;68.75
72277;SHT30;61204;49.980;8.358;2024-02-21T11:45:35;11.59;68.56
72277;SHT30;61204;49.980;8.358;2024-02-21T11:48:06;11.73;67.87
72277;SHT30;61204;49.980;8.358;2024-02-21T11:50:34;11.48;68.10
72277;SHT30;61204;49.980;8.358;2024-02-21T11:53:01;11.76;67.90
72277;SHT30;61204;49.980;8.358;2024-02-21T11:55:27;12.11;68.44
72277;SHT30;61204;49.980;8.358;2024-02-21T11:57:55;12.41;69.16
72277;SHT30;61204;49.980;8.358;2024-02-21T12:00:22;12.35;68.58
72277;SHT30;61204;49.980;8.358;2024-02-21T12:02:50;12.41;66.69
72277;SHT30;61204;49.980;8.358;2024-02-21T12:05:16;12.14;65.81
72277;SHT30;61204;49.980;8.358;2024-02-21T12:07:44;12.03;66.34
72277;SHT30;61204;49.980;8.358;2024-02-21T12:10:11;11.95;66.30
72277;SHT30;61204;49.980;8.358;2024-02-21T12:12:38;11.77;67.19
72277;SHT30;61204;49.980;8.358;2024-02-21T12:15:06;12.30;66.37
72277;SHT30;61204;49.980;8.358;2024-02-21T12:17:37;11.95;67.52
72277;SHT30;61204;49.980;8.358;2024-02-21T12:20:04;12.52;67.56
72277;SHT30;61204;49.980;8.358;2024-02-21T12:22:41;12.49;65.50
72277;SHT30;61204;49.980;8.358;2024-02-21T12:25:21;12.62;67.62
72277;SHT30;61204;49.980;8.358;2024-02-21T12:27:52;12.59;66.94
72277;SHT30;61204;49.980;8.358;2024-02-21T12:30:19;12.35;67.22
72277;SHT30;61204;49.980;8.358;2024-02-21T12:32:46;12.22;67.45
72277;SHT30;61204;49.980;8.358;2024-02-21T12:35:11;12.55;67.30
72277;SHT30;61204;49.980;8.358;2024-02-21T12:37:37;12.76;67.31
72277;SHT30;61204;49.980;8.358;2024-02-21T12:40:08;12.72;66.67
72277;SHT30;61204;49.980;8.358;2024-02-21T12:42:36;12.42;66.41
72277;SHT30;61204;49.980;8.358;2024-02-21T12:45:05;12.28;67.20
72277;SHT30;61204;49.980;8.358;2024-02-21T12:47:31;12.05;67.55
72277;SHT30;61204;49.980;8.358;2024-02-21T12:49:56;12.10;67.50
72277;SHT30;61204;49.980;8.358;2024-02-21T12:52:22;12.24;67.42
72277;SHT30;61204;49.980;8.358;2024-02-21T12:54:50;12.17;67.18
72277;SHT30;61204;49.980;8.358;2024-02-21T12:57:17;12.25;66.83
72277;SHT30;61204;49.980;8.358;2024-02-21T12:59:42;12.14;65.84
72277;SHT30;61204;49.980;8.358;2024-02-21T13:02:10;11.73;66.83
72277;SHT30;61204;49.980;8.358;2024-02-21T13:04:38;11.51;67.57
72277;SHT30;61204;49.980;8.358;2024-02-21T13:07:06;11.75;67.00
72277;SHT30;61204;49.980;8.358;2024-02-21T13:09:34;11.83;67.40
72277;SHT30;61204;49.980;8.358;2024-02-21T13:12:03;11.87;67.77
72277;SHT30;61204;49.980;8.358;2024-02-21T13:14:28;12.25;67.65
72277;SHT30;61204;49.980;8.358;2024-02-21T13:16:54;12.05;68.34
72277;SHT30;61204;49.980;8.358;2024-02-21T13:19:20;12.00;68.84
72277;SHT30;61204;49.980;8.358;2024-02-21T13:21:45;11.90;67.83
72277;SHT30;61204;49.980;8.358;2024-02-21T13:24:11;11.82;67.81
72277;SHT30;61204;49.980;8.358;2024-02-21T13:26:39;11.97;67.87
72277;SHT30;61204;49.980;8.358;2024-02-21T13:29:04;11.95;68.06
72277;SHT30;61204;49.980;8.358;2024-02-21T13:31:30;12.07;68.20
72277;SHT30;61204;49.980;8.358;2024-02-21T13:33:57;12.03;67.68
72277;SHT30;61204;49.980;8.358;2024-02-21T13:36:23;12.11;67.42
72277;SHT30;61204;49.980;8.358;2024-02-21T13:38:49;12.16;66.89
72277;SHT30;61204;49.980;8.358;2024-02-21T13:41:16;12.16;67.07
72277;SHT30;61204;49.980;8.358;2024-02-21T13:43:42;12.28;66.93
72277;SHT30;61204;49.980;8.358;2024-02-21T13:46:08;12.25;66.84
72277;SHT30;61204;49.980;8.358;2024-02-21T13:48:36;12.24;66.89
72277;SHT30;61204;49.980;8.358;2024-02-21T13:51:02;12.24;66.89
72277;SHT30;61204;49.980;8.358;2024-02-21T13:53:28;12.18;66.70
72277;SHT30;61204;49.980;8.358;2024-02-21T13:55:54;12.18;67.07
72277;SHT30;61204;49.980;8.358;2024-02-21T13:58:19;12.16;67.11
72277;SHT30;61204;49.980;8.358;2024-02-21T14:00:46;12.16;66.29
72277;SHT30;61204;49.980;8.358;2024-02-21T14:03:12;12.03;66.97
72277;SHT30;61204;49.980;8.358;2024-02-21T14:05:37;12.13;67.09
72277;SHT30;61204;49.980;8.358;2024-02-21T14:08:06;12.04;66.39
72277;SHT30;61204;49.980;8.358;2024-02-21T14:10:31;11.87;67.83
72277;SHT30;61204;49.980;8.358;2024-02-21T14:12:57;12.04;67.54
72277;SHT30;61204;49.980;8.358;2024-02-21T14:15:23;12.04;67.25
72277;SHT30;61204;49.980;8.358;2024-02-21T14:17:50;12.03;67.19
72277;SHT30;61204;49.980;8.358;2024-02-21T14:20:20;11.95;67.23
72277;SHT30;61204;49.980;8.358;2024-02-21T14:22:45;12.11;68.02
72277;SHT30;61204;49.980;8.358;2024-02-21T14:25:11;12.16;66.86
72277;SHT30;61204;49.980;8.358;2024-02-21T14:27:37;11.97;66.88
72277;SHT30;61204;49.980;8.358;2024-02-21T14:30:04;12.05;66.89
72277;SHT30;61204;49.980;8.358;2024-02-21T14:32:30;12.00;66.82
72277;SHT30;61204;49.980;8.358;2024-02-21T14:34:58;12.01;66.47
72277;SHT30;61204;49.980;8.358;2024-02-21T14:37:23;11.97;67.91
72277;SHT30;61204;49.980;8.358;2024-02-21T14:39:51;11.98;66.96
72277;SHT30;61204;49.980;8.358;2024-02-21T14:42:17;12.13;66.48
72277;SHT30;61204;49.980;8.358;2024-02-21T14:44:42;12.05;67.29
72277;SHT30;61204;49.980;8.358;2024-02-21T14:47:09;12.30;67.19
72277;SHT30;61204;49.980;8.358;2024-02-21T14:49:34;12.25;66.83
72277;SHT30;61204;49.980;8.358;2024-02-21T14:52:01;12.20;66.88
72277;SHT30;61204;49.980;8.358;2024-02-21T14:54:26;12.16;66.97
72277;SHT30;61204;49.980;8.358;2024-02-21T14:56:52;12.03;66.83
72277;SHT30;61204;49.980;8.358;2024-02-21T14:59:19;12.04;67.47
72277;SHT30;61204;49.980;8.358;2024-02-21T15:01:48;11.91;67.57
72277;SHT30;61204;49.980;8.358;2024-02-21T15:04:13;12.16;67.32
72277;SHT30;61204;49.980;8.358;2024-02-21T15:06:39;12.01;68.07
72277;SHT30;61204;49.980;8.358;2024-02-21T15:09:05;11.91;68.60
72277;SHT30;61204;49.980;8.358;2024-02-21T15:11:33;12.00;70.50
72277;SHT30;61204;49.980;8.358;2024-02-21T15:13:59;11.83;71.82
72277;SHT30;61204;49.980;8.358;2024-02-21T15:16:24;11.80;72.64
72277;SHT30;61204;49.980;8.358;2024-02-21T15:18:50;11.63;73.04
72277;SHT30;61204;49.980;8.358;2024-02-21T15:21:16;11.55;73.32
72277;SHT30;61204;49.980;8.358;2024-02-21T15:23:41;11.51;73.80
72277;SHT30;61204;49.980;8.358;2024-02-21T15:26:07;11.41;74.25
72277;SHT30;61204;49.980;8.358;2024-02-21T15:28:37;11.32;73.94
72277;SHT30;61204;49.980;8.358;2024-02-21T15:31:03;11.22;73.47
72277;SHT30;61204;49.980;8.358;2024-02-21T15:33:31;11.20;73.56
72277;SHT30;61204;49.980;8.358;2024-02-21T15:35:57;11.14;73.94
72277;SHT30;61204;49.980;8.358;2024-02-21T15:38:22;11.07;74.19
72277;SHT30;61204;49.980;8.358;2024-02-21T15:40:48;11.06;74.18
72277;SHT30;61204;49.980;8.358;2024-02-21T15:43:15;11.13;73.91
72277;SHT30;61204;49.980;8.358;2024-02-21T15:45:41;11.20;73.62
72277;SHT30;61204;49.980;8.358;2024-02-21T15:48:07;11.07;74.25